createdAt,value
2023-01-17T00:53:16.752Z,2.28
2023-01-17T00:54:19.129Z,2.22
2023-01-17T00:55:21.018Z,2.26
2023-01-17T00:56:23.049Z,2.29
2023-01-17T00:57:26.327Z,2.31
2023-01-17T00:58:28.236Z,2.36
2023-01-17T00:59:30.797Z,2.37
2023-01-17T01:00:32.867Z,2.39
2023-01-17T01:01:35.405Z,2.41
2023-01-17T01:02:38.995Z,2.44
2023-01-17T01:03:41.146Z,2.46
2023-01-17T01:04:43.665Z,2.47
2023-01-17T01:05:47.093Z,2.50
2023-01-17T01:06:49.582Z,2.54
2023-01-17T01:07:52.108Z,2.51
2023-01-17T01:08:54.248Z,2.52
2023-01-17T01:09:56.218Z,2.51
2023-01-17T01:10:58.227Z,2.54
2023-01-17T01:12:00.364Z,2.57
2023-01-17T01:13:02.762Z,2.45
2023-01-17T01:14:06.983Z,2.60
2023-01-17T01:15:09.620Z,2.63
2023-01-17T01:16:13.201Z,2.66
2023-01-17T01:17:15.584Z,2.67
2023-01-17T01:18:17.578Z,2.69
2023-01-17T01:19:19.443Z,2.69
2023-01-17T01:20:21.452Z,2.71
2023-01-17T01:21:23.475Z,2.72
2023-01-17T01:22:25.494Z,2.74
2023-01-17T01:23:27.392Z,2.78
2023-01-17T01:24:30.206Z,2.72
2023-01-17T01:25:32.139Z,2.79
2023-01-17T01:26:34.162Z,2.80
2023-01-17T01:27:36.035Z,2.79
2023-01-17T01:28:38.056Z,2.82
2023-01-17T01:29:40.048Z,2.83
2023-01-17T01:30:42.036Z,2.82
2023-01-17T01:31:43.996Z,2.84
2023-01-17T01:32:46.084Z,2.83
2023-01-17T01:33:49.393Z,2.84
2023-01-17T01:34:51.280Z,2.86
2023-01-17T01:35:54.770Z,2.87
2023-01-17T01:36:56.911Z,2.87
2023-01-17T01:38:00.793Z,2.86
2023-01-17T01:39:03.648Z,2.88
2023-01-17T01:40:07.496Z,2.89
2023-01-17T01:41:09.402Z,2.90
2023-01-17T01:42:15.224Z,2.93
2023-01-17T01:43:20.768Z,2.91
2023-01-17T01:44:43.090Z,2.91
2023-01-17T01:45:48.902Z,2.93
2023-01-17T01:46:51.448Z,2.93
2023-01-17T01:48:02.907Z,2.96
2023-01-17T01:50:25.678Z,3.11
2023-01-17T01:51:31.362Z,3.00
2023-01-17T01:52:37.067Z,3.01
2023-01-17T01:53:42.739Z,3.01
2023-01-17T01:54:54.473Z,3.03
2023-01-17T01:55:56.508Z,3.01
2023-01-17T01:57:02.285Z,3.03
2023-01-17T01:58:10.874Z,3.05
2023-01-17T01:59:15.621Z,3.03
2023-01-17T02:00:21.620Z,3.05
2023-01-17T02:01:23.886Z,3.06
2023-01-17T02:02:29.496Z,3.05
2023-01-17T02:03:32.693Z,3.02
2023-01-17T02:04:35.530Z,3.03
2023-01-17T02:05:37.627Z,3.02
2023-01-17T02:06:49.538Z,3.05
2023-01-17T02:08:04.260Z,3.02
2023-01-17T02:09:09.874Z,3.06
2023-01-17T02:10:11.916Z,3.04
2023-01-17T02:11:14.901Z,3.05
2023-01-17T02:12:20.151Z,3.07
2023-01-17T02:13:22.117Z,3.09
2023-01-17T02:14:24.209Z,3.08
2023-01-17T02:16:44.012Z,3.18
2023-01-17T02:17:49.788Z,3.07
2023-01-17T02:18:55.474Z,3.07
2023-01-17T02:20:20.639Z,3.06
2023-01-17T02:21:26.310Z,3.11
2023-01-17T02:22:38.182Z,3.09
2023-01-17T02:23:59.151Z,3.08
2023-01-17T02:25:21.754Z,3.11
2023-01-17T02:26:44.621Z,3.09
2023-01-17T02:28:17.282Z,3.12
2023-01-17T02:29:53.729Z,3.10
2023-01-17T02:31:02.578Z,3.10
2023-01-17T02:32:17.991Z,3.09
2023-01-17T02:33:23.764Z,3.11
2023-01-17T02:34:41.123Z,3.13
2023-01-17T02:36:02.203Z,3.12
2023-01-17T02:37:14.437Z,3.15
2023-01-17T02:38:36.003Z,3.12
2023-01-17T02:39:41.681Z,3.14
2023-01-17T02:40:56.523Z,3.14
2023-01-17T02:42:05.093Z,3.12
2023-01-17T02:43:10.773Z,3.14
2023-01-17T02:44:16.099Z,3.12
2023-01-17T02:45:19.691Z,3.13
2023-01-17T02:46:22.191Z,3.13
2023-01-17T02:47:26.816Z,3.14
2023-01-17T02:48:34.024Z,3.13
2023-01-17T02:49:37.125Z,3.12
2023-01-17T02:51:00.093Z,3.12
2023-01-17T02:52:23.763Z,3.13
2023-01-17T02:53:46.086Z,3.13
2023-01-17T02:55:08.694Z,3.14
2023-01-17T02:56:20.683Z,3.14
2023-01-17T02:57:27.511Z,3.15
2023-01-17T02:58:42.402Z,3.15
2023-01-17T02:59:54.181Z,3.14
2023-01-17T03:01:18.436Z,3.10
2023-01-17T03:02:51.747Z,3.12
2023-01-17T03:04:04.068Z,3.11
2023-01-17T03:05:13.605Z,3.12
2023-01-17T03:06:37.879Z,3.08
2023-01-17T03:07:41.600Z,3.08
2023-01-17T03:08:46.500Z,3.09
2023-01-17T03:09:52.288Z,3.13
2023-01-17T03:10:54.838Z,3.13
2023-01-17T03:11:58.575Z,3.14
2023-01-17T03:13:02.343Z,3.11
2023-01-17T03:14:04.243Z,3.13
2023-01-17T03:15:14.310Z,3.13
2023-01-17T03:16:20.562Z,3.15
2023-01-17T03:17:26.170Z,3.15
2023-01-17T03:18:28.080Z,3.15
2023-01-17T03:19:30.926Z,3.17
2023-01-17T03:20:33.026Z,3.17
2023-01-17T03:21:35.417Z,3.18
2023-01-17T03:22:37.293Z,3.18
2023-01-17T03:23:39.791Z,3.21
2023-01-17T03:24:41.679Z,3.20
2023-01-17T03:25:43.689Z,3.21
2023-01-17T03:26:45.783Z,3.19
2023-01-17T03:27:47.862Z,3.19
2023-01-17T03:28:50.581Z,3.21
2023-01-17T03:29:52.471Z,3.20
2023-01-17T03:30:54.653Z,3.22
2023-01-17T03:31:57.705Z,3.24
2023-01-17T03:32:59.588Z,3.24
2023-01-17T03:34:01.971Z,3.25
2023-01-17T03:35:06.143Z,3.26
2023-01-17T03:36:09.574Z,3.27
2023-01-17T03:37:11.991Z,3.26
2023-01-17T03:38:15.211Z,3.27
2023-01-17T03:39:17.154Z,3.27
2023-01-17T03:40:19.155Z,3.30
2023-01-17T03:41:22.965Z,3.30
2023-01-17T03:42:24.877Z,3.28
2023-01-17T03:43:26.775Z,3.30
2023-01-17T03:44:28.697Z,3.28
2023-01-17T03:45:31.979Z,3.32
2023-01-17T03:46:34.173Z,3.32
2023-01-17T03:47:36.161Z,3.30
2023-01-17T03:48:40.576Z,3.33
2023-01-17T03:49:42.596Z,3.33
2023-01-17T03:50:44.648Z,3.34
2023-01-17T03:51:47.664Z,3.35
2023-01-17T03:52:50.052Z,3.32
2023-01-17T03:53:52.934Z,3.33
2023-01-17T03:54:55.938Z,3.36
2023-01-17T03:55:57.842Z,3.36
2023-01-17T03:57:00.887Z,3.35
2023-01-17T03:58:02.964Z,3.38
2023-01-17T03:59:04.973Z,3.35
2023-01-17T04:00:09.329Z,3.36
2023-01-17T04:01:12.665Z,3.39
2023-01-17T04:02:14.731Z,3.42
2023-01-17T04:03:17.236Z,3.42
2023-01-17T04:04:19.509Z,3.43
2023-01-17T04:05:22.510Z,3.42
2023-01-17T04:06:25.065Z,3.42
2023-01-17T04:07:27.322Z,3.41
2023-01-17T04:08:29.459Z,3.40
2023-01-17T04:09:32.172Z,3.41
2023-01-17T04:10:34.875Z,3.42
2023-01-17T04:11:37.100Z,3.42
2023-01-17T04:12:39.161Z,3.48
2023-01-17T04:13:41.140Z,3.48
2023-01-17T04:14:43.300Z,3.50
2023-01-17T04:15:47.476Z,3.51
2023-01-17T04:16:49.811Z,3.52
2023-01-17T04:17:53.297Z,3.53
2023-01-17T04:18:57.823Z,3.53
2023-01-17T04:19:59.732Z,3.53
2023-01-17T04:21:01.727Z,3.53
2023-01-17T04:22:03.749Z,3.55
2023-01-17T04:23:06.745Z,3.55
2023-01-17T04:24:08.735Z,3.55
2023-01-17T04:25:10.888Z,3.58
2023-01-17T04:26:13.627Z,3.54
2023-01-17T04:27:15.814Z,3.56
2023-01-17T04:28:17.847Z,3.56
2023-01-17T04:29:20.427Z,3.56
2023-01-17T04:30:23.119Z,3.54
2023-01-17T04:31:25.035Z,3.54
2023-01-17T04:32:27.579Z,3.54
2023-01-17T04:33:29.455Z,3.55
2023-01-17T04:34:31.681Z,3.56
2023-01-17T04:35:33.775Z,3.54
2023-01-17T04:36:35.815Z,3.55
2023-01-17T04:37:39.414Z,3.58
2023-01-17T04:38:41.302Z,3.58
2023-01-17T04:39:43.198Z,3.56
2023-01-17T04:40:45.187Z,3.55
2023-01-17T04:41:47.050Z,3.55
2023-01-17T04:42:48.911Z,3.51
2023-01-17T04:43:50.900Z,3.52
2023-01-17T04:44:52.888Z,3.52
2023-01-17T04:45:57.457Z,3.53
2023-01-17T04:46:59.543Z,3.50
2023-01-17T04:48:03.116Z,3.50
2023-01-17T04:49:05.583Z,3.49
2023-01-17T04:50:10.276Z,3.52
2023-01-17T04:51:12.179Z,3.51
2023-01-17T04:52:14.195Z,3.51
2023-01-17T04:53:16.588Z,3.50
2023-01-17T04:54:18.545Z,3.49
2023-01-17T04:55:20.420Z,3.47
2023-01-17T04:56:22.384Z,3.48
2023-01-17T04:57:24.377Z,3.45
2023-01-17T04:58:26.283Z,3.44
2023-01-17T04:59:29.348Z,3.44
2023-01-17T05:00:31.431Z,3.48
2023-01-17T05:01:33.501Z,3.47
2023-01-17T05:02:36.142Z,3.45
2023-01-17T05:03:38.079Z,3.45
2023-01-17T05:04:40.144Z,3.37
2023-01-17T05:05:43.248Z,3.31
2023-01-17T05:06:45.335Z,3.24
2023-01-17T05:07:57.504Z,3.23
2023-01-17T05:08:59.580Z,3.19
2023-01-17T05:10:02.353Z,3.18
2023-01-17T05:11:04.621Z,3.15
2023-01-17T05:12:06.507Z,3.10
2023-01-17T05:13:08.681Z,3.06
2023-01-17T05:14:10.784Z,3.05
2023-01-17T05:15:12.749Z,3.02
2023-01-17T05:16:17.449Z,3.02
2023-01-17T05:17:19.445Z,3.00
2023-01-17T05:18:21.382Z,3.03
2023-01-17T05:19:26.200Z,3.00
2023-01-17T05:20:28.232Z,3.01
2023-01-17T05:21:30.248Z,3.02
2023-01-17T05:22:32.340Z,2.98
2023-01-17T05:23:34.212Z,2.98
2023-01-17T05:24:36.110Z,2.96
2023-01-17T05:25:39.005Z,2.95
2023-01-17T05:26:41.348Z,2.95
2023-01-17T05:27:43.235Z,2.96
2023-01-17T05:28:45.298Z,2.95
2023-01-17T05:29:47.267Z,2.99
2023-01-17T05:30:49.313Z,2.97
2023-01-17T05:31:54.026Z,2.94
2023-01-17T05:32:57.325Z,2.95
2023-01-17T05:34:01.074Z,2.95
2023-01-17T05:35:03.659Z,2.91
2023-01-17T05:36:06.863Z,2.99
2023-01-17T05:37:08.785Z,2.95
2023-01-17T05:38:11.046Z,2.94
2023-01-17T05:39:13.036Z,2.95
2023-01-17T05:40:16.985Z,2.95
2023-01-17T05:41:20.781Z,2.95
2023-01-17T05:42:22.816Z,2.93
2023-01-17T05:43:24.705Z,2.91
2023-01-17T05:44:26.857Z,2.94
2023-01-17T05:45:30.692Z,2.95
2023-01-17T05:46:32.832Z,2.92
2023-01-17T05:47:34.803Z,2.92
2023-01-17T05:48:36.810Z,2.98
2023-01-17T05:49:40.841Z,3.00
2023-01-17T05:50:44.039Z,3.00
2023-01-17T05:51:45.946Z,3.01
2023-01-17T05:52:53.344Z,3.00
2023-01-17T05:53:55.381Z,3.00
2023-01-17T05:54:57.300Z,3.03
2023-01-17T05:55:59.335Z,3.00
2023-01-17T05:57:02.476Z,3.00
2023-01-17T05:58:07.821Z,3.02
2023-01-17T10:00:51.890Z,2.63
2023-01-17T10:02:08.388Z,2.52
2023-01-17T10:03:28.854Z,2.54
2023-01-17T10:04:57.399Z,2.57
2023-01-17T10:07:31.980Z,2.73
2023-01-17T10:08:46.337Z,2.65
2023-01-17T10:09:55.059Z,2.67
2023-01-17T10:11:20.826Z,2.68
2023-01-17T10:12:38.305Z,2.71
2023-01-17T10:14:13.450Z,2.73
2023-01-17T10:15:31.042Z,2.75
2023-01-17T10:16:52.328Z,2.76
2023-01-17T10:18:28.739Z,2.77
2023-01-17T10:19:50.842Z,2.79
2023-01-17T10:20:59.160Z,2.83
2023-01-17T10:22:26.474Z,2.84
2023-01-17T10:23:47.531Z,2.88
2023-01-17T10:25:05.230Z,2.93
2023-01-17T10:26:17.640Z,2.95
2023-01-17T10:27:23.325Z,2.95
2023-01-17T10:28:46.427Z,2.98
2023-01-17T10:29:50.909Z,3.01
2023-01-17T10:30:59.564Z,3.03
2023-01-17T10:32:03.243Z,3.07
2023-01-17T12:00:33.928Z,2.90
2023-01-17T12:02:59.799Z,2.94
2023-01-17T12:04:37.313Z,2.87
2023-01-17T12:05:59.634Z,2.91
2023-01-17T12:07:22.140Z,2.96
2023-01-17T12:08:43.256Z,3.01
2023-01-17T12:10:13.397Z,3.07
2023-01-17T12:12:35.862Z,3.20
2023-01-17T12:14:07.819Z,3.10
2023-01-17T12:15:17.039Z,3.12
2023-01-17T12:16:23.201Z,3.16
2023-01-17T12:17:31.865Z,3.17
2023-01-17T12:18:46.892Z,3.19
2023-01-17T12:20:00.673Z,3.21
2023-01-17T12:21:22.133Z,3.23
2023-01-17T12:22:51.769Z,3.24
2023-01-17T12:24:03.029Z,3.24
2023-01-17T12:25:10.051Z,3.30
2023-01-17T12:26:18.673Z,3.27
2023-01-17T12:27:24.363Z,3.34
2023-01-17T12:30:02.802Z,3.49
2023-01-17T12:31:31.678Z,3.34
2023-01-17T12:32:49.636Z,3.37
2023-01-17T12:34:08.129Z,3.39
2023-01-17T12:35:16.732Z,3.40
2023-01-17T12:36:28.798Z,3.41
2023-01-17T12:37:34.608Z,3.39
2023-01-17T12:38:39.328Z,3.40
2023-01-17T12:39:45.048Z,3.43
2023-01-17T12:40:50.876Z,3.43
2023-01-17T12:42:05.775Z,3.49
2023-01-17T12:43:23.512Z,3.47
2023-01-17T12:44:59.620Z,3.50
2023-01-17T12:46:22.335Z,3.50
2023-01-17T12:47:24.952Z,3.48
2023-01-17T12:48:30.629Z,3.50
2023-01-17T12:49:42.047Z,3.49
2023-01-17T12:51:00.814Z,3.48
2023-01-17T12:53:45.163Z,3.59
2023-01-17T12:54:50.875Z,3.48
2023-01-17T12:55:57.371Z,3.51
2023-01-17T12:58:21.944Z,3.63
2023-01-17T12:59:30.805Z,3.56
2023-01-17T13:00:36.611Z,3.55
2023-01-17T13:01:40.729Z,3.57
2023-01-17T13:03:12.708Z,3.56
2023-01-17T13:05:41.016Z,3.68
2023-01-17T13:06:53.842Z,3.55
2023-01-17T13:08:11.908Z,3.56
2023-01-17T13:09:18.788Z,3.55
2023-01-17T13:10:36.564Z,3.52
2023-01-17T13:11:42.448Z,3.53
2023-01-17T13:12:46.770Z,3.54
2023-01-17T13:13:50.017Z,3.52
2023-01-17T13:14:52.590Z,3.54
2023-01-17T13:15:58.375Z,3.55
2023-01-17T13:17:10.318Z,3.55
2023-01-17T13:18:17.800Z,3.56
2023-01-17T13:19:49.404Z,3.54
2023-01-17T13:21:25.585Z,3.55
2023-01-17T13:22:29.704Z,3.59
2023-01-17T13:23:41.511Z,3.60
2023-01-17T13:24:59.594Z,3.58
2023-01-17T13:26:04.602Z,3.63
2023-01-17T13:27:16.029Z,3.59
2023-01-17T13:28:36.362Z,3.60
2023-01-17T13:30:11.271Z,3.54
2023-01-17T13:31:23.271Z,3.63
2023-01-17T13:32:46.142Z,3.64
2023-01-17T13:34:25.013Z,3.63
2023-01-17T13:37:22.580Z,3.74
2023-01-17T13:38:55.994Z,3.62
2023-01-17T13:40:22.721Z,3.62
2023-01-17T13:41:28.389Z,3.65
2023-01-17T13:42:37.909Z,3.63
2023-01-17T13:43:42.833Z,3.65
2023-01-17T13:44:45.789Z,3.64
2023-01-17T13:45:54.457Z,3.63
2023-01-17T13:47:03.681Z,3.61
2023-01-17T13:48:15.567Z,3.62
2023-01-17T13:49:35.650Z,3.62
2023-01-17T13:50:47.761Z,3.63
2023-01-17T13:53:37.360Z,3.75
2023-01-17T13:54:45.436Z,3.63
2023-01-17T13:55:50.364Z,3.63
2023-01-17T13:56:56.784Z,3.63
2023-01-17T13:57:58.690Z,3.61
2023-01-17T20:00:57.082Z,4.06
2023-01-17T20:01:59.480Z,3.98
2023-01-17T20:03:01.748Z,3.99
2023-01-17T20:05:13.893Z,4.15
2023-01-17T20:06:18.888Z,4.06
2023-01-17T20:07:22.031Z,4.08
2023-01-17T20:08:24.016Z,4.09
2023-01-17T20:09:25.904Z,4.09
2023-01-17T20:10:28.177Z,4.10
2023-01-17T20:11:30.174Z,4.11
2023-01-17T20:12:33.857Z,4.14
2023-01-17T20:13:37.681Z,4.14
2023-01-17T20:14:39.580Z,4.14
2023-01-17T20:15:41.774Z,4.13
2023-01-17T20:16:43.815Z,4.15
2023-01-17T20:17:46.233Z,4.11
2023-01-17T20:18:49.511Z,4.10
2023-01-17T20:19:51.396Z,4.08
2023-01-17T20:20:57.358Z,4.05
2023-01-17T20:21:58.703Z,4.05
2023-01-17T20:23:00.598Z,4.01
2023-01-17T20:24:03.295Z,4.05
2023-01-17T20:25:08.693Z,4.08
2023-01-17T20:26:12.553Z,4.06
2023-01-17T20:27:14.548Z,4.06
2023-01-17T20:28:16.420Z,4.08
2023-01-17T20:29:18.424Z,4.05
2023-01-17T20:30:20.859Z,4.07
2023-01-17T20:31:25.357Z,4.12
2023-01-17T20:32:27.613Z,4.14
2023-01-17T20:33:29.500Z,4.13
2023-01-17T20:34:31.410Z,4.15
2023-01-17T20:35:33.393Z,4.16
2023-01-17T20:36:37.127Z,4.17
2023-01-17T20:37:39.904Z,4.16
2023-01-17T20:38:43.593Z,4.18
2023-01-17T20:39:45.586Z,4.17
2023-01-17T20:40:54.390Z,4.15
2023-01-17T20:41:56.451Z,4.15
2023-01-17T20:42:58.660Z,4.15
2023-01-17T20:44:03.041Z,4.18
2023-01-17T20:45:06.243Z,4.17
2023-01-17T20:46:09.324Z,4.17
2023-01-17T20:47:11.576Z,4.17
2023-01-17T20:48:13.569Z,4.21
2023-01-17T20:49:17.851Z,4.19
2023-01-17T20:50:20.917Z,4.21
2023-01-17T20:51:26.148Z,4.20
2023-01-17T20:52:28.874Z,4.17
2023-01-17T20:53:32.426Z,4.18
2023-01-17T20:54:34.330Z,4.21
2023-01-17T20:55:36.204Z,4.22
2023-01-17T20:56:38.817Z,4.24
2023-01-17T20:57:40.811Z,4.27
2023-01-17T20:58:42.917Z,4.31
2023-01-17T20:59:44.934Z,4.33
2023-01-17T21:00:48.547Z,4.29
2023-01-17T21:01:50.770Z,4.29
2023-01-17T21:02:52.924Z,4.29
2023-01-17T21:03:56.743Z,4.29
2023-01-17T21:04:59.442Z,4.35
2023-01-17T21:06:07.515Z,4.35
2023-01-17T21:07:09.417Z,4.34
2023-01-17T21:08:11.412Z,4.34
2023-01-17T21:09:14.091Z,4.37
2023-01-17T21:10:16.412Z,4.36
2023-01-17T21:11:23.502Z,4.42
2023-01-17T21:12:26.321Z,4.38
2023-01-17T21:13:28.956Z,4.40
2023-01-17T21:14:31.856Z,4.41
2023-01-17T21:15:33.940Z,4.41
2023-01-17T21:16:36.311Z,4.42
2023-01-17T21:17:39.463Z,4.41
2023-01-17T21:18:45.343Z,4.41
2023-01-17T21:19:47.268Z,4.42
2023-01-17T21:20:50.277Z,4.44
2023-01-17T21:21:52.681Z,4.45
2023-01-17T21:22:54.656Z,4.44
2023-01-17T21:23:58.968Z,4.45
2023-01-17T21:25:01.006Z,4.45
2023-01-17T21:26:08.665Z,4.44
2023-01-17T21:27:10.843Z,4.42
2023-01-17T21:28:12.855Z,4.46
2023-01-17T21:29:14.835Z,4.45
2023-01-17T21:30:19.248Z,4.46
2023-01-17T21:31:28.509Z,4.47
2023-01-17T21:32:30.555Z,4.45
2023-01-17T21:33:32.536Z,4.46
2023-01-17T21:34:34.735Z,4.46
2023-01-17T21:35:36.637Z,4.49
2023-01-17T21:36:41.019Z,4.52
2023-01-17T21:37:49.214Z,4.48
2023-01-17T21:38:54.417Z,4.50
2023-01-17T21:39:56.458Z,4.50
2023-01-17T21:40:58.568Z,4.48
2023-01-17T21:42:00.560Z,4.52
2023-01-17T21:43:02.618Z,4.50
2023-01-17T21:44:07.668Z,4.49
2023-01-17T21:45:10.590Z,4.47
2023-01-17T21:46:13.835Z,4.47
2023-01-17T21:47:16.497Z,4.44
2023-01-17T21:48:18.413Z,4.44
2023-01-17T21:49:20.328Z,4.46
2023-01-17T21:50:33.049Z,4.47
2023-01-17T21:51:26.229Z,4.47
2023-01-17T21:52:28.581Z,4.48
